sensor_id;sensor_type;location;lat;lon;timestamp;temperature;humidity
48162;DHT22;33950;48.154;16.316;2024-03-02T00:01:03;9.30;99.90
48162;DHT22;33950;48.154;16.316;2024-03-02T00:03:29;9.30;99.90
48162;DHT22;33950;48.154;16.316;2024-03-02T00:05:54;9.30;99.90
48162;DHT22;33950;48.154;16.316;2024-03-02T00:08:22;9.30;99.90
48162;DHT22;33950;48.154;16.316;2024-03-02T00:10:49;9.30;99.90
48162;DHT22;33950;48.154;16.316;2024-03-02T00:13:15;9.20;99.90
48162;DHT22;33950;48.154;16.316;2024-03-02T00:15:41;9.20;99.90
48162;DHT22;33950;48.154;16.316;2024-03-02T00:18:10;9.10;99.90
48162;DHT22;33950;48.154;16.316;2024-03-02T00:20:36;9.10;99.90
48162;DHT22;33950;48.154;16.316;2024-03-02T00:23:02;9.10;99.90
48162;DHT22;33950;48.154;16.316;2024-03-02T00:25:33;9.00;99.90
48162;DHT22;33950;48.154;16.316;2024-03-02T00:28:03;9.00;99.90
48162;DHT22;33950;48.154;16.316;2024-03-02T00:30:36;9.00;99.90
48162;DHT22;33950;48.154;16.316;2024-03-02T00:33:07;9.00;99.90
48162;DHT22;33950;48.154;16.316;2024-03-02T00:35:33;8.90;99.90
48162;DHT22;33950;48.154;16.316;2024-03-02T00:38:02;8.70;99.90
48162;DHT22;33950;48.154;16.316;2024-03-02T00:40:28;8.60;99.90
48162;DHT22;33950;48.154;16.316;2024-03-02T00:42:55;8.60;99.90
48162;DHT22;33950;48.154;16.316;2024-03-02T00:45:22;8.50;99.90
48162;DHT22;33950;48.154;16.316;2024-03-02T00:47:50;8.50;99.90
48162;DHT22;33950;48.154;16.316;2024-03-02T00:50:15;8.40;99.90
48162;DHT22;33950;48.154;16.316;2024-03-02T00:52:41;8.30;99.90
48162;DHT22;33950;48.154;16.316;2024-03-02T00:55:07;8.20;99.90
48162;DHT22;33950;48.154;16.316;2024-03-02T00:57:33;8.20;99.90
48162;DHT22;33950;48.154;16.316;2024-03-02T00:59:59;8.20;99.90
48162;DHT22;33950;48.154;16.316;2024-03-02T01:02:26;8.20;99.90
48162;DHT22;33950;48.154;16.316;2024-03-02T01:04:53;8.20;99.90
48162;DHT22;33950;48.154;16.316;2024-03-02T01:07:18;8.20;99.90
48162;DHT22;33950;48.154;16.316;2024-03-02T01:09:44;8.30;99.90
48162;DHT22;33950;48.154;16.316;2024-03-02T01:12:10;8.40;99.90
48162;DHT22;33950;48.154;16.316;2024-03-02T01:14:36;8.40;99.90
48162;DHT22;33950;48.154;16.316;2024-03-02T01:17:01;8.50;99.90
48162;DHT22;33950;48.154;16.316;2024-03-02T01:19:31;8.50;99.90
48162;DHT22;33950;48.154;16.316;2024-03-02T01:21:56;8.50;99.90
48162;DHT22;33950;48.154;16.316;2024-03-02T01:24:22;8.40;99.90
48162;DHT22;33950;48.154;16.316;2024-03-02T01:26:47;8.30;99.90
48162;DHT22;33950;48.154;16.316;2024-03-02T01:29:13;8.30;99.90
48162;DHT22;33950;48.154;16.316;2024-03-02T01:31:39;8.30;99.90
48162;DHT22;33950;48.154;16.316;2024-03-02T01:34:07;8.40;99.90
48162;DHT22;33950;48.154;16.316;2024-03-02T01:36:34;8.40;99.90
48162;DHT22;33950;48.154;16.316;2024-03-02T01:39:02;8.40;99.90
48162;DHT22;33950;48.154;16.316;2024-03-02T01:41:28;8.40;99.90
48162;DHT22;33950;48.154;16.316;2024-03-02T01:43:53;8.40;99.90
48162;DHT22;33950;48.154;16.316;2024-03-02T01:46:19;8.40;99.90
48162;DHT22;33950;48.154;16.316;2024-03-02T01:48:46;8.50;99.90
48162;DHT22;33950;48.154;16.316;2024-03-02T01:51:13;8.50;99.90
48162;DHT22;33950;48.154;16.316;2024-03-02T01:53:40;8.40;99.90
48162;DHT22;33950;48.154;16.316;2024-03-02T01:56:05;8.40;99.90
48162;DHT22;33950;48.154;16.316;2024-03-02T01:58:31;8.40;99.90
48162;DHT22;33950;48.154;16.316;2024-03-02T02:00:57;8.40;99.90
48162;DHT22;33950;48.154;16.316;2024-03-02T02:03:22;8.40;99.90
48162;DHT22;33950;48.154;16.316;2024-03-02T02:05:48;8.40;99.90
48162;DHT22;33950;48.154;16.316;2024-03-02T02:08:13;8.40;99.90
48162;DHT22;33950;48.154;16.316;2024-03-02T02:10:40;8.40;99.90
48162;DHT22;33950;48.154;16.316;2024-03-02T02:13:06;8.40;99.90
48162;DHT22;33950;48.154;16.316;2024-03-02T02:15:33;8.40;99.90
48162;DHT22;33950;48.154;16.316;2024-03-02T02:18:01;8.40;99.90
48162;DHT22;33950;48.154;16.316;2024-03-02T02:20:27;8.40;99.90
48162;DHT22;33950;48.154;16.316;2024-03-02T02:22:57;8.40;99.90
48162;DHT22;33950;48.154;16.316;2024-03-02T02:25:23;8.30;99.90
48162;DHT22;33950;48.154;16.316;2024-03-02T02:27:49;8.30;99.90
48162;DHT22;33950;48.154;16.316;2024-03-02T02:30:18;8.20;99.90
48162;DHT22;33950;48.154;16.316;2024-03-02T02:32:43;8.10;99.90
48162;DHT22;33950;48.154;16.316;2024-03-02T02:35:09;8.10;99.90
48162;DHT22;33950;48.154;16.316;2024-03-02T02:37:34;8.00;99.90
48162;DHT22;33950;48.154;16.316;2024-03-02T02:40:02;7.90;99.90
48162;DHT22;33950;48.154;16.316;2024-03-02T02:42:30;7.80;99.90
48162;DHT22;33950;48.154;16.316;2024-03-02T02:44:56;7.90;99.90
48162;DHT22;33950;48.154;16.316;2024-03-02T02:47:21;7.80;99.90
48162;DHT22;33950;48.154;16.316;2024-03-02T02:49:47;7.80;99.90
48162;DHT22;33950;48.154;16.316;2024-03-02T02:52:12;7.90;99.90
48162;DHT22;33950;48.154;16.316;2024-03-02T02:54:38;8.00;99.90
48162;DHT22;33950;48.154;16.316;2024-03-02T02:57:05;8.10;99.90
48162;DHT22;33950;48.154;16.316;2024-03-02T02:59:31;8.10;99.90
48162;DHT22;33950;48.154;16.316;2024-03-02T03:01:56;8.00;99.90
48162;DHT22;33950;48.154;16.316;2024-03-02T03:04:22;7.90;99.90
48162;DHT22;33950;48.154;16.316;2024-03-02T03:06:47;7.80;99.90
48162;DHT22;33950;48.154;16.316;2024-03-02T03:09:13;7.70;99.90
48162;DHT22;33950;48.154;16.316;2024-03-02T03:11:38;7.60;99.90
48162;DHT22;33950;48.154;16.316;2024-03-02T03:14:06;7.60;99.90
48162;DHT22;33950;48.154;16.316;2024-03-02T03:16:31;7.60;99.90
48162;DHT22;33950;48.154;16.316;2024-03-02T03:18:57;7.50;99.90
48162;DHT22;33950;48.154;16.316;2024-03-02T03:21:22;7.50;99.90
48162;DHT22;33950;48.154;16.316;2024-03-02T03:23:48;7.40;99.90
48162;DHT22;33950;48.154;16.316;2024-03-02T03:26:14;7.50;99.90
48162;DHT22;33950;48.154;16.316;2024-03-02T03:28:39;7.50;99.90
48162;DHT22;33950;48.154;16.316;2024-03-02T03:31:06;7.50;99.90
48162;DHT22;33950;48.154;16.316;2024-03-02T03:33:32;7.50;99.90
48162;DHT22;33950;48.154;16.316;2024-03-02T03:35:58;7.60;99.90
48162;DHT22;33950;48.154;16.316;2024-03-02T03:38:23;7.70;99.90
48162;DHT22;33950;48.154;16.316;2024-03-02T03:40:49;7.70;99.90
48162;DHT22;33950;48.154;16.316;2024-03-02T03:43:14;7.70;99.90
48162;DHT22;33950;48.154;16.316;2024-03-02T03:45:40;7.80;99.90
48162;DHT22;33950;48.154;16.316;2024-03-02T03:48:08;7.80;99.90
48162;DHT22;33950;48.154;16.316;2024-03-02T03:50:34;7.80;99.90
48162;DHT22;33950;48.154;16.316;2024-03-02T03:53:00;7.80;99.90
48162;DHT22;33950;48.154;16.316;2024-03-02T03:55:25;7.80;99.90
48162;DHT22;33950;48.154;16.316;2024-03-02T03:57:51;7.70;99.90
48162;DHT22;33950;48.154;16.316;2024-03-02T04:00:17;7.70;99.90
48162;DHT22;33950;48.154;16.316;2024-03-02T04:02:42;7.60;99.90
48162;DHT22;33950;48.154;16.316;2024-03-02T04:05:09;7.60;99.90
48162;DHT22;33950;48.154;16.316;2024-03-02T04:07:36;7.70;99.90
48162;DHT22;33950;48.154;16.316;2024-03-02T04:10:08;7.70;99.90
48162;DHT22;33950;48.154;16.316;2024-03-02T04:12:34;7.80;99.90
48162;DHT22;33950;48.154;16.316;2024-03-02T04:15:01;7.80;99.90
48162;DHT22;33950;48.154;16.316;2024-03-02T04:17:27;7.80;99.90
48162;DHT22;33950;48.154;16.316;2024-03-02T04:19:52;7.80;99.90
48162;DHT22;33950;48.154;16.316;2024-03-02T04:22:19;7.80;99.90
48162;DHT22;33950;48.154;16.316;2024-03-02T04:24:45;7.80;99.90
48162;DHT22;33950;48.154;16.316;2024-03-02T04:27:10;7.70;99.90
48162;DHT22;33950;48.154;16.316;2024-03-02T04:29:36;7.70;99.90
48162;DHT22;33950;48.154;16.316;2024-03-02T04:32:02;7.60;99.90
48162;DHT22;33950;48.154;16.316;2024-03-02T04:34:27;7.60;99.90
48162;DHT22;33950;48.154;16.316;2024-03-02T04:36:53;7.60;99.90
48162;DHT22;33950;48.154;16.316;2024-03-02T04:39:20;7.50;99.90
48162;DHT22;33950;48.154;16.316;2024-03-02T04:41:45;7.50;99.90
48162;DHT22;33950;48.154;16.316;2024-03-02T04:44:11;7.50;99.90
48162;DHT22;33950;48.154;16.316;2024-03-02T04:46:37;7.50;99.90
48162;DHT22;33950;48.154;16.316;2024-03-02T04:49:02;7.50;99.90
48162;DHT22;33950;48.154;16.316;2024-03-02T04:51:28;7.50;99.90
48162;DHT22;33950;48.154;16.316;2024-03-02T04:53:53;7.50;99.90
48162;DHT22;33950;48.154;16.316;2024-03-02T04:56:20;7.60;99.90
48162;DHT22;33950;48.154;16.316;2024-03-02T04:59:09;7.70;99.90
48162;DHT22;33950;48.154;16.316;2024-03-02T05:01:35;7.80;99.90
48162;DHT22;33950;48.154;16.316;2024-03-02T05:04:00;7.70;99.90
48162;DHT22;33950;48.154;16.316;2024-03-02T05:06:26;7.60;99.90
48162;DHT22;33950;48.154;16.316;2024-03-02T05:08:52;7.50;99.90
48162;DHT22;33950;48.154;16.316;2024-03-02T05:11:17;7.40;99.90
48162;DHT22;33950;48.154;16.316;2024-03-02T05:14:13;7.30;99.90
48162;DHT22;33950;48.154;16.316;2024-03-02T05:16:39;7.30;99.90
48162;DHT22;33950;48.154;16.316;2024-03-02T05:19:06;7.30;99.90
48162;DHT22;33950;48.154;16.316;2024-03-02T05:21:32;7.30;99.90
48162;DHT22;33950;48.154;16.316;2024-03-02T05:23:57;7.30;99.90
48162;DHT22;33950;48.154;16.316;2024-03-02T05:26:23;7.30;99.90
48162;DHT22;33950;48.154;16.316;2024-03-02T05:28:48;7.30;99.90
48162;DHT22;33950;48.154;16.316;2024-03-02T05:31:16;7.30;99.90
48162;DHT22;33950;48.154;16.316;2024-03-02T05:33:42;7.30;99.90
48162;DHT22;33950;48.154;16.316;2024-03-02T05:36:07;7.30;99.90
48162;DHT22;33950;48.154;16.316;2024-03-02T05:38:34;7.30;99.90
48162;DHT22;33950;48.154;16.316;2024-03-02T05:41:00;7.30;99.90
48162;DHT22;33950;48.154;16.316;2024-03-02T05:43:26;7.30;99.90
48162;DHT22;33950;48.154;16.316;2024-03-02T05:45:51;7.30;99.90
48162;DHT22;33950;48.154;16.316;2024-03-02T05:48:18;7.30;99.90
48162;DHT22;33950;48.154;16.316;2024-03-02T05:50:44;7.20;99.90
48162;DHT22;33950;48.154;16.316;2024-03-02T05:53:09;7.10;99.90
48162;DHT22;33950;48.154;16.316;2024-03-02T05:55:35;7.10;99.90
48162;DHT22;33950;48.154;16.316;2024-03-02T05:58:00;7.00;99.90
48162;DHT22;33950;48.154;16.316;2024-03-02T06:00:32;6.90;99.90
48162;DHT22;33950;48.154;16.316;2024-03-02T06:02:58;6.90;99.90
48162;DHT22;33950;48.154;16.316;2024-03-02T06:05:25;7.00;99.90
48162;DHT22;33950;48.154;16.316;2024-03-02T06:07:50;6.90;99.90
48162;DHT22;33950;48.154;16.316;2024-03-02T06:10:16;6.90;99.90
48162;DHT22;33950;48.154;16.316;2024-03-02T06:12:42;6.90;99.90
48162;DHT22;33950;48.154;16.316;2024-03-02T06:15:08;6.90;99.90
48162;DHT22;33950;48.154;16.316;2024-03-02T06:17:34;7.00;99.90
48162;DHT22;33950;48.154;16.316;2024-03-02T06:20:00;7.00;99.90
48162;DHT22;33950;48.154;16.316;2024-03-02T06:22:27;7.00;99.90
48162;DHT22;33950;48.154;16.316;2024-03-02T06:24:53;7.00;99.90
48162;DHT22;33950;48.154;16.316;2024-03-02T06:27:18;7.00;99.90
48162;DHT22;33950;48.154;16.316;2024-03-02T06:29:44;7.00;99.90
48162;DHT22;33950;48.154;16.316;2024-03-02T06:32:09;7.00;99.90
48162;DHT22;33950;48.154;16.316;2024-03-02T06:34:35;7.10;99.90
48162;DHT22;33950;48.154;16.316;2024-03-02T06:37:01;7.00;99.90
48162;DHT22;33950;48.154;16.316;2024-03-02T06:39:28;7.00;99.90
48162;DHT22;33950;48.154;16.316;2024-03-02T06:41:53;7.00;99.90
48162;DHT22;33950;48.154;16.316;2024-03-02T06:44:19;7.00;99.90
48162;DHT22;33950;48.154;16.316;2024-03-02T06:46:45;7.00;99.90
48162;DHT22;33950;48.154;16.316;2024-03-02T06:49:10;7.00;99.90
48162;DHT22;33950;48.154;16.316;2024-03-02T06:51:36;7.00;99.90
48162;DHT22;33950;48.154;16.316;2024-03-02T06:54:02;7.00;99.90
48162;DHT22;33950;48.154;16.316;2024-03-02T06:56:29;7.10;99.90
48162;DHT22;33950;48.154;16.316;2024-03-02T06:58:56;7.00;99.90
48162;DHT22;33950;48.154;16.316;2024-03-02T07:01:21;7.00;99.90
48162;DHT22;33950;48.154;16.316;2024-03-02T07:03:47;7.00;99.90
48162;DHT22;33950;48.154;16.316;2024-03-02T07:06:13;7.00;99.90
48162;DHT22;33950;48.154;16.316;2024-03-02T07:08:38;7.00;99.90
48162;DHT22;33950;48.154;16.316;2024-03-02T07:11:04;7.00;99.90
48162;DHT22;33950;48.154;16.316;2024-03-02T07:13:31;7.00;99.90
48162;DHT22;33950;48.154;16.316;2024-03-02T07:15:56;7.00;99.90
48162;DHT22;33950;48.154;16.316;2024-03-02T07:18:28;7.00;99.90
48162;DHT22;33950;48.154;16.316;2024-03-02T07:20:53;7.00;99.90
48162;DHT22;33950;48.154;16.316;2024-03-02T07:23:20;7.00;99.90
48162;DHT22;33950;48.154;16.316;2024-03-02T07:25:49;7.00;99.90
48162;DHT22;33950;48.154;16.316;2024-03-02T07:28:15;7.00;99.90
48162;DHT22;33950;48.154;16.316;2024-03-02T07:30:42;7.10;99.90
48162;DHT22;33950;48.154;16.316;2024-03-02T07:33:08;7.10;99.90
48162;DHT22;33950;48.154;16.316;2024-03-02T07:35:34;7.10;99.90
48162;DHT22;33950;48.154;16.316;2024-03-02T07:37:59;7.00;99.90
48162;DHT22;33950;48.154;16.316;2024-03-02T07:40:25;7.00;99.90
48162;DHT22;33950;48.154;16.316;2024-03-02T07:42:50;7.00;99.90
48162;DHT22;33950;48.154;16.316;2024-03-02T07:45:16;7.00;99.90
48162;DHT22;33950;48.154;16.316;2024-03-02T07:47:43;7.00;99.90
48162;DHT22;33950;48.154;16.316;2024-03-02T07:50:09;7.00;99.90
48162;DHT22;33950;48.154;16.316;2024-03-02T07:52:35;7.00;99.90
48162;DHT22;33950;48.154;16.316;2024-03-02T07:55:01;7.00;99.90
48162;DHT22;33950;48.154;16.316;2024-03-02T07:57:26;7.00;99.90
48162;DHT22;33950;48.154;16.316;2024-03-02T07:59:52;6.90;99.90
48162;DHT22;33950;48.154;16.316;2024-03-02T08:02:18;6.90;99.90
48162;DHT22;33950;48.154;16.316;2024-03-02T08:04:45;7.00;99.90
48162;DHT22;33950;48.154;16.316;2024-03-02T08:07:11;7.00;99.90
48162;DHT22;33950;48.154;16.316;2024-03-02T08:09:37;7.10;99.90
48162;DHT22;33950;48.154;16.316;2024-03-02T08:12:02;7.10;99.90
48162;DHT22;33950;48.154;16.316;2024-03-02T08:14:28;7.20;99.90
48162;DHT22;33950;48.154;16.316;2024-03-02T08:16:54;7.20;99.90
48162;DHT22;33950;48.154;16.316;2024-03-02T08:19:20;7.20;99.90
48162;DHT22;33950;48.154;16.316;2024-03-02T08:21:47;7.20;99.90
48162;DHT22;33950;48.154;16.316;2024-03-02T08:24:12;7.30;99.90
48162;DHT22;33950;48.154;16.316;2024-03-02T08:26:38;7.30;99.90
48162;DHT22;33950;48.154;16.316;2024-03-02T08:29:03;7.50;99.90
48162;DHT22;33950;48.154;16.316;2024-03-02T08:31:29;7.60;99.90
48162;DHT22;33950;48.154;16.316;2024-03-02T08:33:55;7.60;99.90
48162;DHT22;33950;48.154;16.316;2024-03-02T08:36:22;7.60;99.90
48162;DHT22;33950;48.154;16.316;2024-03-02T08:38:49;7.60;99.90
48162;DHT22;33950;48.154;16.316;2024-03-02T08:41:15;7.70;99.90
48162;DHT22;33950;48.154;16.316;2024-03-02T08:43:41;7.70;99.90
48162;DHT22;33950;48.154;16.316;2024-03-02T08:46:07;7.70;99.90
48162;DHT22;33950;48.154;16.316;2024-03-02T08:48:33;7.70;99.90
48162;DHT22;33950;48.154;16.316;2024-03-02T08:50:59;7.80;99.90
48162;DHT22;33950;48.154;16.316;2024-03-02T08:53:25;7.90;99.90
48162;DHT22;33950;48.154;16.316;2024-03-02T08:55:52;8.10;99.90
48162;DHT22;33950;48.154;16.316;2024-03-02T08:58:17;8.20;99.90
48162;DHT22;33950;48.154;16.316;2024-03-02T09:00:43;8.20;99.90
48162;DHT22;33950;48.154;16.316;2024-03-02T09:03:09;8.20;99.90
48162;DHT22;33950;48.154;16.316;2024-03-02T09:05:35;8.20;99.90
48162;DHT22;33950;48.154;16.316;2024-03-02T09:08:01;8.20;99.90
48162;DHT22;33950;48.154;16.316;2024-03-02T09:10:26;8.20;99.90
48162;DHT22;33950;48.154;16.316;2024-03-02T09:12:53;8.20;99.90
48162;DHT22;33950;48.154;16.316;2024-03-02T09:15:19;8.30;99.90
48162;DHT22;33950;48.154;16.316;2024-03-02T09:17:44;8.30;99.90
48162;DHT22;33950;48.154;16.316;2024-03-02T09:20:10;8.50;99.90
48162;DHT22;33950;48.154;16.316;2024-03-02T09:22:36;8.60;99.90
48162;DHT22;33950;48.154;16.316;2024-03-02T09:25:02;8.70;99.90
48162;DHT22;33950;48.154;16.316;2024-03-02T09:27:28;8.60;99.90
48162;DHT22;33950;48.154;16.316;2024-03-02T09:29:54;8.70;99.90
48162;DHT22;33950;48.154;16.316;2024-03-02T09:32:20;8.70;99.90
48162;DHT22;33950;48.154;16.316;2024-03-02T09:34:46;8.70;99.90
48162;DHT22;33950;48.154;16.316;2024-03-02T09:37:13;8.80;99.90
48162;DHT22;33950;48.154;16.316;2024-03-02T09:39:39;8.90;99.90
48162;DHT22;33950;48.154;16.316;2024-03-02T09:42:05;8.90;99.90
48162;DHT22;33950;48.154;16.316;2024-03-02T09:44:31;9.00;99.90
48162;DHT22;33950;48.154;16.316;2024-03-02T09:46:58;9.00;99.90
48162;DHT22;33950;48.154;16.316;2024-03-02T09:49:23;9.10;99.90
48162;DHT22;33950;48.154;16.316;2024-03-02T09:51:49;9.10;99.90
48162;DHT22;33950;48.154;16.316;2024-03-02T09:54:15;9.10;99.90
48162;DHT22;33950;48.154;16.316;2024-03-02T09:56:41;9.10;99.90
48162;DHT22;33950;48.154;16.316;2024-03-02T09:59:06;9.10;99.90
48162;DHT22;33950;48.154;16.316;2024-03-02T10:01:32;9.20;99.90
48162;DHT22;33950;48.154;16.316;2024-03-02T10:03:59;9.20;99.90
48162;DHT22;33950;48.154;16.316;2024-03-02T10:06:26;9.30;99.90
48162;DHT22;33950;48.154;16.316;2024-03-02T10:08:52;9.30;99.90
48162;DHT22;33950;48.154;16.316;2024-03-02T10:11:27;9.30;99.90
48162;DHT22;33950;48.154;16.316;2024-03-02T10:14:06;9.50;99.90
48162;DHT22;33950;48.154;16.316;2024-03-02T10:16:36;9.50;99.90
48162;DHT22;33950;48.154;16.316;2024-03-02T10:19:16;9.50;99.90
48162;DHT22;33950;48.154;16.316;2024-03-02T10:21:43;9.50;99.90
48162;DHT22;33950;48.154;16.316;2024-03-02T10:24:08;9.60;99.90
48162;DHT22;33950;48.154;16.316;2024-03-02T10:26:34;9.60;99.90
48162;DHT22;33950;48.154;16.316;2024-03-02T10:29:00;9.70;99.90
48162;DHT22;33950;48.154;16.316;2024-03-02T10:31:25;9.70;99.90
48162;DHT22;33950;48.154;16.316;2024-03-02T10:33:53;9.70;99.90
48162;DHT22;33950;48.154;16.316;2024-03-02T10:36:20;9.70;99.90
48162;DHT22;33950;48.154;16.316;2024-03-02T10:38:46;9.80;99.90
48162;DHT22;33950;48.154;16.316;2024-03-02T10:41:13;9.90;99.90
48162;DHT22;33950;48.154;16.316;2024-03-02T10:43:42;9.90;99.90
48162;DHT22;33950;48.154;16.316;2024-03-02T10:46:07;9.90;99.90
48162;DHT22;33950;48.154;16.316;2024-03-02T10:48:33;10.00;99.90
48162;DHT22;33950;48.154;16.316;2024-03-02T10:51:01;10.00;99.90
48162;DHT22;33950;48.154;16.316;2024-03-02T10:53:29;10.00;99.90
48162;DHT22;33950;48.154;16.316;2024-03-02T10:55:57;10.00;99.90
48162;DHT22;33950;48.154;16.316;2024-03-02T10:58:27;10.10;99.90
48162;DHT22;33950;48.154;16.316;2024-03-02T11:00:56;10.20;99.90
48162;DHT22;33950;48.154;16.316;2024-03-02T11:03:23;10.30;99.90
48162;DHT22;33950;48.154;16.316;2024-03-02T11:05:49;10.30;99.90
48162;DHT22;33950;48.154;16.316;2024-03-02T11:08:16;10.30;99.90
48162;DHT22;33950;48.154;16.316;2024-03-02T11:10:48;10.40;99.90
48162;DHT22;33950;48.154;16.316;2024-03-02T11:13:16;10.60;99.90
48162;DHT22;33950;48.154;16.316;2024-03-02T11:15:44;10.60;99.90
48162;DHT22;33950;48.154;16.316;2024-03-02T11:18:10;10.70;99.90
48162;DHT22;33950;48.154;16.316;2024-03-02T11:20:36;10.90;99.90
48162;DHT22;33950;48.154;16.316;2024-03-02T11:23:06;11.10;99.90
48162;DHT22;33950;48.154;16.316;2024-03-02T11:25:33;11.20;99.90
48162;DHT22;33950;48.154;16.316;2024-03-02T11:28:00;11.30;99.90
48162;DHT22;33950;48.154;16.316;2024-03-02T11:33:10;11.20;99.90
48162;DHT22;33950;48.154;16.316;2024-03-02T11:35:36;11.20;99.90
48162;DHT22;33950;48.154;16.316;2024-03-02T11:38:02;11.20;99.90
48162;DHT22;33950;48.154;16.316;2024-03-02T11:40:29;11.10;99.90
48162;DHT22;33950;48.154;16.316;2024-03-02T11:42:55;11.00;99.90
48162;DHT22;33950;48.154;16.316;2024-03-02T11:45:23;11.00;99.90
48162;DHT22;33950;48.154;16.316;2024-03-02T11:47:49;11.00;99.90
48162;DHT22;33950;48.154;16.316;2024-03-02T11:50:15;11.00;99.90
48162;DHT22;33950;48.154;16.316;2024-03-02T11:52:41;11.00;99.90
48162;DHT22;33950;48.154;16.316;2024-03-02T11:55:07;11.00;99.90
48162;DHT22;33950;48.154;16.316;2024-03-02T11:57:35;11.00;99.90
48162;DHT22;33950;48.154;16.316;2024-03-02T12:00:00;11.00;99.90
48162;DHT22;33950;48.154;16.316;2024-03-02T12:02:30;11.00;99.90
48162;DHT22;33950;48.154;16.316;2024-03-02T12:04:56;11.00;99.90
48162;DHT22;33950;48.154;16.316;2024-03-02T12:07:22;11.10;99.90
48162;DHT22;33950;48.154;16.316;2024-03-02T12:09:49;11.10;99.90
48162;DHT22;33950;48.154;16.316;2024-03-02T12:12:15;11.10;99.90
48162;DHT22;33950;48.154;16.316;2024-03-02T12:14:50;11.20;99.90
48162;DHT22;33950;48.154;16.316;2024-03-02T12:17:16;11.30;99.90
48162;DHT22;33950;48.154;16.316;2024-03-02T12:19:43;11.40;99.90
48162;DHT22;33950;48.154;16.316;2024-03-02T12:22:08;11.50;99.90
48162;DHT22;33950;48.154;16.316;2024-03-02T12:24:34;11.60;99.90
48162;DHT22;33950;48.154;16.316;2024-03-02T12:27:00;11.80;99.90
48162;DHT22;33950;48.154;16.316;2024-03-02T12:29:25;11.90;99.90
48162;DHT22;33950;48.154;16.316;2024-03-02T12:31:51;12.00;99.90
48162;DHT22;33950;48.154;16.316;2024-03-02T12:34:17;12.00;99.90
48162;DHT22;33950;48.154;16.316;2024-03-02T12:36:45;12.20;99.90
48162;DHT22;33950;48.154;16.316;2024-03-02T12:39:13;12.30;99.90
48162;DHT22;33950;48.154;16.316;2024-03-02T12:41:38;12.30;99.90
48162;DHT22;33950;48.154;16.316;2024-03-02T12:44:04;12.40;99.90
48162;DHT22;33950;48.154;16.316;2024-03-02T12:46:30;12.60;99.90
48162;DHT22;33950;48.154;16.316;2024-03-02T12:48:55;12.70;99.90
48162;DHT22;33950;48.154;16.316;2024-03-02T12:51:21;12.80;99.90
48162;DHT22;33950;48.154;16.316;2024-03-02T12:53:54;12.80;99.90
48162;DHT22;33950;48.154;16.316;2024-03-02T12:56:20;12.70;99.90
48162;DHT22;33950;48.154;16.316;2024-03-02T12:58:45;12.70;99.90
48162;DHT22;33950;48.154;16.316;2024-03-02T13:01:11;12.80;99.90
48162;DHT22;33950;48.154;16.316;2024-03-02T13:03:36;12.70;99.90
48162;DHT22;33950;48.154;16.316;2024-03-02T13:06:03;12.70;99.90
48162;DHT22;33950;48.154;16.316;2024-03-02T13:08:29;12.70;99.90
48162;DHT22;33950;48.154;16.316;2024-03-02T13:10:56;12.90;99.90
48162;DHT22;33950;48.154;16.316;2024-03-02T13:13:21;13.30;99.90
48162;DHT22;33950;48.154;16.316;2024-03-02T13:15:48;13.60;99.90
48162;DHT22;33950;48.154;16.316;2024-03-02T13:18:14;13.90;99.90
48162;DHT22;33950;48.154;16.316;2024-03-02T13:20:39;14.00;99.90
48162;DHT22;33950;48.154;16.316;2024-03-02T13:23:05;13.80;99.90
48162;DHT22;33950;48.154;16.316;2024-03-02T13:25:31;13.60;99.90
48162;DHT22;33950;48.154;16.316;2024-03-02T13:27:58;13.40;99.90
48162;DHT22;33950;48.154;16.316;2024-03-02T13:30:24;13.20;99.90
48162;DHT22;33950;48.154;16.316;2024-03-02T13:32:50;13.10;99.90
48162;DHT22;33950;48.154;16.316;2024-03-02T13:35:15;13.10;99.90
48162;DHT22;33950;48.154;16.316;2024-03-02T13:37:41;13.00;99.90
48162;DHT22;33950;48.154;16.316;2024-03-02T13:40:07;12.90;99.90
48162;DHT22;33950;48.154;16.316;2024-03-02T13:42:38;12.90;99.90
48162;DHT22;33950;48.154;16.316;2024-03-02T13:45:05;12.80;99.90
48162;DHT22;33950;48.154;16.316;2024-03-02T13:47:31;12.90;99.90
48162;DHT22;33950;48.154;16.316;2024-03-02T13:49:57;12.90;99.90
48162;DHT22;33950;48.154;16.316;2024-03-02T13:52:23;12.90;99.90
48162;DHT22;33950;48.154;16.316;2024-03-02T13:54:51;12.80;99.90
48162;DHT22;33950;48.154;16.316;2024-03-02T13:57:17;12.80;99.90
48162;DHT22;33950;48.154;16.316;2024-03-02T13:59:45;12.80;99.90
48162;DHT22;33950;48.154;16.316;2024-03-02T14:02:12;12.70;99.90
48162;DHT22;33950;48.154;16.316;2024-03-02T14:04:38;12.60;99.90
48162;DHT22;33950;48.154;16.316;2024-03-02T14:07:04;12.60;99.90
48162;DHT22;33950;48.154;16.316;2024-03-02T14:09:32;12.50;99.90
48162;DHT22;33950;48.154;16.316;2024-03-02T14:11:57;12.50;99.90
48162;DHT22;33950;48.154;16.316;2024-03-02T14:14:25;12.50;99.90
48162;DHT22;33950;48.154;16.316;2024-03-02T14:16:51;12.60;99.90
48162;DHT22;33950;48.154;16.316;2024-03-02T14:19:18;12.60;99.90
48162;DHT22;33950;48.154;16.316;2024-03-02T14:21:44;12.60;99.90
48162;DHT22;33950;48.154;16.316;2024-03-02T14:24:10;12.60;99.90
48162;DHT22;33950;48.154;16.316;2024-03-02T14:26:35;12.50;99.90
48162;DHT22;33950;48.154;16.316;2024-03-02T14:29:02;12.50;99.90
48162;DHT22;33950;48.154;16.316;2024-03-02T14:31:27;12.40;99.90
48162;DHT22;33950;48.154;16.316;2024-03-02T14:33:53;12.40;99.90
48162;DHT22;33950;48.154;16.316;2024-03-02T14:36:20;12.30;99.90
48162;DHT22;33950;48.154;16.316;2024-03-02T14:38:46;12.20;99.90
48162;DHT22;33950;48.154;16.316;2024-03-02T14:41:12;12.20;99.90
48162;DHT22;33950;48.154;16.316;2024-03-02T14:43:38;12.20;99.90
48162;DHT22;33950;48.154;16.316;2024-03-02T14:46:04;12.20;99.90
48162;DHT22;33950;48.154;16.316;2024-03-02T14:48:29;12.20;99.90
48162;DHT22;33950;48.154;16.316;2024-03-02T14:50:55;12.20;99.90
48162;DHT22;33950;48.154;16.316;2024-03-02T14:53:22;12.20;99.90
48162;DHT22;33950;48.154;16.316;2024-03-02T14:55:48;12.20;99.90
48162;DHT22;33950;48.154;16.316;2024-03-02T14:58:13;12.20;99.90
48162;DHT22;33950;48.154;16.316;2024-03-02T15:00:39;12.20;99.90
48162;DHT22;33950;48.154;16.316;2024-03-02T15:03:04;12.20;99.90
48162;DHT22;33950;48.154;16.316;2024-03-02T15:05:33;12.10;99.90
48162;DHT22;33950;48.154;16.316;2024-03-02T15:07:58;12.20;99.90
48162;DHT22;33950;48.154;16.316;2024-03-02T15:10:28;12.20;99.90
48162;DHT22;33950;48.154;16.316;2024-03-02T15:12:54;12.20;99.90
48162;DHT22;33950;48.154;16.316;2024-03-02T15:15:19;12.20;99.90
48162;DHT22;33950;48.154;16.316;2024-03-02T15:17:45;12.00;99.90
48162;DHT22;33950;48.154;16.316;2024-03-02T15:20:11;12.00;99.90
48162;DHT22;33950;48.154;16.316;2024-03-02T15:22:36;12.00;99.90
48162;DHT22;33950;48.154;16.316;2024-03-02T15:25:02;12.00;99.90